Harbinger, North Carolina
Current Conditions -  °F | °C
As of 5:55 AM on Wednesday 22 Oct 2014 (Local Time) from KFFA Reporting Station
Overcast Overcast  
Wind Chill: 58°   Ceiling: 7500
Heat Index: 58°   Visibility: 10mi
Dew Point: 55°   Wind: 7mph
Humidity: 91%   Direction: 280°W
Pressure: 29.79"   Gusts: 16mph
Location:  36.1°N, 75.81°W
Report Text: KFFA 220955Z AUTO 28006G14KT 10SM SCT011 BKN075 OVC100 14/13 A2979 RMK AO2 T01420127
Loading
Personal Weather Stations






























Interactive Weather Map
Tropical Storm Tracking
New forecast layout! Learn more

10-Day Weather Forecast

Advertisements
Track Severe Weather on mobile